sensor_id;sensor_type;location;lat;lon;timestamp;pressure;altitude;pressure_sealevel;temperature;humidity
60244;BME280;46106;51.468;5.814;2023-04-04T00:00:28;102627.38;;;2.82;100.00
60244;BME280;46106;51.468;5.814;2023-04-04T00:02:54;102624.72;;;2.80;100.00
60244;BME280;46106;51.468;5.814;2023-04-04T00:05:19;102607.88;;;2.64;100.00
60244;BME280;46106;51.468;5.814;2023-04-04T00:07:45;102622.19;;;2.71;100.00
60244;BME280;46106;51.468;5.814;2023-04-04T00:10:11;102616.09;;;2.58;100.00
60244;BME280;46106;51.468;5.814;2023-04-04T00:12:37;102624.00;;;2.69;100.00
60244;BME280;46106;51.468;5.814;2023-04-04T00:15:03;102626.91;;;2.58;100.00
60244;BME280;46106;51.468;5.814;2023-04-04T00:17:29;102630.34;;;2.68;100.00
60244;BME280;46106;51.468;5.814;2023-04-04T00:19:54;102628.66;;;2.59;100.00
60244;BME280;46106;51.468;5.814;2023-04-04T00:22:21;102628.00;;;2.46;100.00
60244;BME280;46106;51.468;5.814;2023-04-04T00:24:46;102640.56;;;2.49;100.00
60244;BME280;46106;51.468;5.814;2023-04-04T00:27:13;102638.06;;;2.38;100.00
60244;BME280;46106;51.468;5.814;2023-04-04T00:29:38;102634.47;;;2.36;100.00
60244;BME280;46106;51.468;5.814;2023-04-04T00:32:04;102631.66;;;2.42;100.00
60244;BME280;46106;51.468;5.814;2023-04-04T00:34:30;102627.63;;;2.69;100.00
60244;BME280;46106;51.468;5.814;2023-04-04T00:36:55;102616.13;;;2.56;100.00
60244;BME280;46106;51.468;5.814;2023-04-04T00:39:21;102630.41;;;2.65;100.00
60244;BME280;46106;51.468;5.814;2023-04-04T00:41:48;102609.06;;;2.48;100.00
60244;BME280;46106;51.468;5.814;2023-04-04T00:44:13;102625.47;;;2.35;100.00
60244;BME280;46106;51.468;5.814;2023-04-04T00:46:39;102630.91;;;2.32;100.00
60244;BME280;46106;51.468;5.814;2023-04-04T00:49:05;102634.34;;;2.44;100.00
60244;BME280;46106;51.468;5.814;2023-04-04T00:51:30;102644.94;;;2.57;100.00
60244;BME280;46106;51.468;5.814;2023-04-04T00:53:56;102638.81;;;2.48;100.00
60244;BME280;46106;51.468;5.814;2023-04-04T00:56:23;102636.09;;;2.48;100.00
60244;BME280;46106;51.468;5.814;2023-04-04T00:58:49;102620.84;;;2.44;100.00
60244;BME280;46106;51.468;5.814;2023-04-04T01:01:15;102629.41;;;2.69;100.00
60244;BME280;46106;51.468;5.814;2023-04-04T01:03:41;102633.13;;;2.63;100.00
60244;BME280;46106;51.468;5.814;2023-04-04T01:06:10;102631.56;;;2.50;100.00
60244;BME280;46106;51.468;5.814;2023-04-04T01:08:36;102640.63;;;2.44;100.00
60244;BME280;46106;51.468;5.814;2023-04-04T01:11:05;102634.59;;;2.30;100.00
60244;BME280;46106;51.468;5.814;2023-04-04T01:13:31;102627.44;;;2.24;100.00
60244;BME280;46106;51.468;5.814;2023-04-04T01:15:57;102623.00;;;2.22;100.00
60244;BME280;46106;51.468;5.814;2023-04-04T01:18:24;102628.25;;;2.31;100.00
60244;BME280;46106;51.468;5.814;2023-04-04T01:20:55;102631.94;;;2.27;100.00
60244;BME280;46106;51.468;5.814;2023-04-04T01:23:23;102625.63;;;2.25;100.00
60244;BME280;46106;51.468;5.814;2023-04-04T01:26:03;102627.63;;;2.13;100.00
60244;BME280;46106;51.468;5.814;2023-04-04T01:28:29;102630.34;;;2.13;100.00
60244;BME280;46106;51.468;5.814;2023-04-04T01:30:58;102624.19;;;2.04;100.00
60244;BME280;46106;51.468;5.814;2023-04-04T01:33:45;102626.84;;;2.07;100.00
60244;BME280;46106;51.468;5.814;2023-04-04T01:36:21;102620.88;;;1.81;100.00
60244;BME280;46106;51.468;5.814;2023-04-04T01:39:11;102622.69;;;1.81;100.00
60244;BME280;46106;51.468;5.814;2023-04-04T01:41:40;102615.56;;;1.75;100.00
60244;BME280;46106;51.468;5.814;2023-04-04T01:44:08;102617.22;;;1.87;100.00
60244;BME280;46106;51.468;5.814;2023-04-04T01:46:34;102604.38;;;2.00;100.00
60244;BME280;46106;51.468;5.814;2023-04-04T01:49:03;102596.94;;;2.16;100.00
60244;BME280;46106;51.468;5.814;2023-04-04T01:51:29;102597.06;;;2.08;100.00
60244;BME280;46106;51.468;5.814;2023-04-04T01:53:55;102600.91;;;1.93;100.00
60244;BME280;46106;51.468;5.814;2023-04-04T01:56:20;102590.44;;;1.69;100.00
60244;BME280;46106;51.468;5.814;2023-04-04T01:58:46;102599.31;;;1.77;100.00
60244;BME280;46106;51.468;5.814;2023-04-04T02:01:11;102592.19;;;1.74;100.00
60244;BME280;46106;51.468;5.814;2023-04-04T02:03:36;102601.06;;;1.84;100.00
60244;BME280;46106;51.468;5.814;2023-04-04T02:06:02;102596.75;;;1.69;100.00
60244;BME280;46106;51.468;5.814;2023-04-04T02:08:27;102603.03;;;1.70;100.00
60244;BME280;46106;51.468;5.814;2023-04-04T02:10:56;102602.19;;;1.68;100.00
60244;BME280;46106;51.468;5.814;2023-04-04T02:13:22;102589.81;;;1.50;100.00
60244;BME280;46106;51.468;5.814;2023-04-04T02:15:50;102600.63;;;1.48;100.00
60244;BME280;46106;51.468;5.814;2023-04-04T02:18:15;102602.47;;;1.46;100.00
60244;BME280;46106;51.468;5.814;2023-04-04T02:20:41;102612.41;;;1.41;100.00
60244;BME280;46106;51.468;5.814;2023-04-04T02:23:06;102608.81;;;1.40;100.00
60244;BME280;46106;51.468;5.814;2023-04-04T02:25:32;102611.41;;;1.51;100.00
60244;BME280;46106;51.468;5.814;2023-04-04T02:27:57;102611.31;;;1.56;100.00
60244;BME280;46106;51.468;5.814;2023-04-04T02:30:23;102616.81;;;1.50;100.00
60244;BME280;46106;51.468;5.814;2023-04-04T02:32:48;102607.88;;;1.44;100.00
60244;BME280;46106;51.468;5.814;2023-04-04T02:35:14;102600.75;;;1.39;100.00
60244;BME280;46106;51.468;5.814;2023-04-04T02:37:46;102611.41;;;1.51;100.00
60244;BME280;46106;51.468;5.814;2023-04-04T02:40:12;102601.53;;;1.49;100.00
60244;BME280;46106;51.468;5.814;2023-04-04T02:42:41;102601.69;;;1.36;100.00
60244;BME280;46106;51.468;5.814;2023-04-04T02:45:08;102604.28;;;1.44;100.00
60244;BME280;46106;51.468;5.814;2023-04-04T02:47:34;102606.13;;;1.40;100.00
60244;BME280;46106;51.468;5.814;2023-04-04T02:49:59;102606.06;;;1.46;100.00
60244;BME280;46106;51.468;5.814;2023-04-04T02:52:25;102605.13;;;1.47;100.00
60244;BME280;46106;51.468;5.814;2023-04-04T02:54:51;102605.16;;;1.46;100.00
60244;BME280;46106;51.468;5.814;2023-04-04T02:57:17;102607.16;;;1.30;100.00
60244;BME280;46106;51.468;5.814;2023-04-04T02:59:42;102599.03;;;1.33;100.00
60244;BME280;46106;51.468;5.814;2023-04-04T03:02:07;102611.63;;;1.31;100.00
60244;BME280;46106;51.468;5.814;2023-04-04T03:04:33;102602.72;;;1.24;100.00
60244;BME280;46106;51.468;5.814;2023-04-04T03:07:00;102601.78;;;1.28;100.00
60244;BME280;46106;51.468;5.814;2023-04-04T03:09:27;102597.34;;;1.21;100.00
60244;BME280;46106;51.468;5.814;2023-04-04T03:11:52;102600.03;;;1.21;100.00
60244;BME280;46106;51.468;5.814;2023-04-04T03:14:18;102600.13;;;1.17;100.00
60244;BME280;46106;51.468;5.814;2023-04-04T03:16:43;102602.75;;;1.21;100.00
60244;BME280;46106;51.468;5.814;2023-04-04T03:19:09;102601.03;;;1.14;100.00
60244;BME280;46106;51.468;5.814;2023-04-04T03:21:35;102598.25;;;1.23;100.00
60244;BME280;46106;51.468;5.814;2023-04-04T03:24:00;102595.50;;;1.26;100.00
60244;BME280;46106;51.468;5.814;2023-04-04T03:26:25;102583.84;;;1.23;100.00
60244;BME280;46106;51.468;5.814;2023-04-04T03:28:53;102566.97;;;1.07;100.00
60244;BME280;46106;51.468;5.814;2023-04-04T03:31:18;102589.34;;;1.15;100.00
60244;BME280;46106;51.468;5.814;2023-04-04T03:33:44;102593.72;;;1.25;100.00
60244;BME280;46106;51.468;5.814;2023-04-04T03:36:10;102593.81;;;1.16;100.00
60244;BME280;46106;51.468;5.814;2023-04-04T03:38:37;102601.88;;;1.18;100.00
60244;BME280;46106;51.468;5.814;2023-04-04T03:41:03;102597.34;;;1.21;100.00
60244;BME280;46106;51.468;5.814;2023-04-04T03:43:30;102594.66;;;1.21;100.00
60244;BME280;46106;51.468;5.814;2023-04-04T03:46:04;102598.31;;;1.17;100.00
60244;BME280;46106;51.468;5.814;2023-04-04T03:48:30;102605.41;;;1.23;100.00
60244;BME280;46106;51.468;5.814;2023-04-04T03:50:56;102598.41;;;1.06;100.00
60244;BME280;46106;51.468;5.814;2023-04-04T03:53:23;102575.38;;;0.76;100.00
60244;BME280;46106;51.468;5.814;2023-04-04T03:55:49;102579.91;;;0.76;100.00
60244;BME280;46106;51.468;5.814;2023-04-04T03:58:14;102601.41;;;0.80;100.00
60244;BME280;46106;51.468;5.814;2023-04-04T04:00:40;102587.81;;;0.91;100.00
60244;BME280;46106;51.468;5.814;2023-04-04T04:03:05;102589.63;;;0.89;100.00
60244;BME280;46106;51.468;5.814;2023-04-04T04:05:31;102582.38;;;0.96;100.00
60244;BME280;46106;51.468;5.814;2023-04-04T04:07:56;102575.16;;;0.98;100.00
60244;BME280;46106;51.468;5.814;2023-04-04T04:10:21;102574.13;;;1.08;100.00
60244;BME280;46106;51.468;5.814;2023-04-04T04:12:47;102585.03;;;0.99;100.00
60244;BME280;46106;51.468;5.814;2023-04-04T04:15:13;102577.72;;;1.10;100.00
60244;BME280;46106;51.468;5.814;2023-04-04T04:17:39;102590.34;;;1.05;100.00
60244;BME280;46106;51.468;5.814;2023-04-04T04:20:09;102580.69;;;0.85;100.00
60244;BME280;46106;51.468;5.814;2023-04-04T04:22:34;102581.50;;;0.94;100.00
60244;BME280;46106;51.468;5.814;2023-04-04T04:25:00;102572.38;;;1.05;100.00
60244;BME280;46106;51.468;5.814;2023-04-04T04:27:26;102572.53;;;0.90;100.00
60244;BME280;46106;51.468;5.814;2023-04-04T04:29:51;102579.69;;;0.96;100.00
60244;BME280;46106;51.468;5.814;2023-04-04T04:32:17;102580.69;;;0.85;100.00
60244;BME280;46106;51.468;5.814;2023-04-04T04:34:43;102575.25;;;0.88;100.00
60244;BME280;46106;51.468;5.814;2023-04-04T04:37:08;102580.78;;;0.78;100.00
60244;BME280;46106;51.468;5.814;2023-04-04T04:39:34;102580.78;;;0.75;100.00
60244;BME280;46106;51.468;5.814;2023-04-04T04:42:00;102584.38;;;0.73;100.00
60244;BME280;46106;51.468;5.814;2023-04-04T04:44:26;102570.09;;;0.64;100.00
60244;BME280;46106;51.468;5.814;2023-04-04T04:46:52;102579.00;;;0.73;100.00
60244;BME280;46106;51.468;5.814;2023-04-04T04:49:17;102586.19;;;0.76;100.00
60244;BME280;46106;51.468;5.814;2023-04-04T04:51:43;102566.53;;;0.63;100.00
60244;BME280;46106;51.468;5.814;2023-04-04T04:54:08;102586.31;;;0.61;100.00
60244;BME280;46106;51.468;5.814;2023-04-04T04:56:35;102584.50;;;0.63;100.00
60244;BME280;46106;51.468;5.814;2023-04-04T04:59:01;102579.03;;;0.70;100.00
60244;BME280;46106;51.468;5.814;2023-04-04T05:01:26;102576.44;;;0.61;100.00
60244;BME280;46106;51.468;5.814;2023-04-04T05:03:52;102579.19;;;0.55;100.00
60244;BME280;46106;51.468;5.814;2023-04-04T05:06:17;102581.91;;;0.50;100.00
60244;BME280;46106;51.468;5.814;2023-04-04T05:08:43;102590.94;;;0.49;100.00
60244;BME280;46106;51.468;5.814;2023-04-04T05:11:08;102577.53;;;0.39;100.00
60244;BME280;46106;51.468;5.814;2023-04-04T05:13:34;102589.28;;;0.31;100.00
60244;BME280;46106;51.468;5.814;2023-04-04T05:16:00;102596.44;;;0.31;100.00
60244;BME280;46106;51.468;5.814;2023-04-04T05:18:25;102594.63;;;0.36;100.00
60244;BME280;46106;51.468;5.814;2023-04-04T05:20:54;102609.88;;;0.37;100.00
60244;BME280;46106;51.468;5.814;2023-04-04T05:23:20;102605.38;;;0.39;100.00
60244;BME280;46106;51.468;5.814;2023-04-04T05:25:50;102607.91;;;0.58;100.00
60244;BME280;46106;51.468;5.814;2023-04-04T05:28:20;102609.69;;;0.57;100.00
60244;BME280;46106;51.468;5.814;2023-04-04T05:30:46;102607.91;;;0.58;100.00
60244;BME280;46106;51.468;5.814;2023-04-04T05:33:11;102601.53;;;0.69;100.00
60244;BME280;46106;51.468;5.814;2023-04-04T05:35:37;102614.97;;;0.74;100.00
60244;BME280;46106;51.468;5.814;2023-04-04T05:38:02;102603.28;;;0.72;100.00
60244;BME280;46106;51.468;5.814;2023-04-04T05:40:28;102607.69;;;0.81;100.00
60244;BME280;46106;51.468;5.814;2023-04-04T05:42:57;102601.41;;;0.79;100.00
60244;BME280;46106;51.468;5.814;2023-04-04T05:45:23;102613.00;;;0.88;100.00
60244;BME280;46106;51.468;5.814;2023-04-04T05:47:49;102613.09;;;0.79;100.00
60244;BME280;46106;51.468;5.814;2023-04-04T05:50:14;102603.09;;;0.92;100.00
60244;BME280;46106;51.468;5.814;2023-04-04T05:52:40;102614.75;;;0.94;100.00
60244;BME280;46106;51.468;5.814;2023-04-04T05:55:06;102621.88;;;0.98;100.00
60244;BME280;46106;51.468;5.814;2023-04-04T05:57:32;102624.56;;;1.01;100.00
60244;BME280;46106;51.468;5.814;2023-04-04T05:59:57;102626.19;;;1.16;100.00
60244;BME280;46106;51.468;5.814;2023-04-04T06:02:23;102628.53;;;1.45;100.00
60244;BME280;46106;51.468;5.814;2023-04-04T06:04:48;102629.47;;;1.44;100.00
60244;BME280;46106;51.468;5.814;2023-04-04T06:07:14;102639.06;;;1.67;100.00
60244;BME280;46106;51.468;5.814;2023-04-04T06:09:41;102635.78;;;2.10;100.00
60244;BME280;46106;51.468;5.814;2023-04-04T06:12:06;102633.06;;;2.12;100.00
60244;BME280;46106;51.468;5.814;2023-04-04T06:14:34;102638.72;;;2.51;100.00
60244;BME280;46106;51.468;5.814;2023-04-04T06:17:03;102643.00;;;2.67;100.00
60244;BME280;46106;51.468;5.814;2023-04-04T06:19:29;102638.91;;;2.42;100.00
60244;BME280;46106;51.468;5.814;2023-04-04T06:21:55;102634.59;;;2.30;100.00
60244;BME280;46106;51.468;5.814;2023-04-04T06:24:20;102644.09;;;2.52;100.00
60244;BME280;46106;51.468;5.814;2023-04-04T06:26:46;102643.94;;;2.63;100.00
60244;BME280;46106;51.468;5.814;2023-04-04T06:29:16;102630.88;;;3.35;100.00
60244;BME280;46106;51.468;5.814;2023-04-04T06:31:43;102636.75;;;3.57;100.00
60244;BME280;46106;51.468;5.814;2023-04-04T06:34:08;102633.28;;;3.50;100.00
60244;BME280;46106;51.468;5.814;2023-04-04T06:36:35;102647.53;;;3.59;100.00
60244;BME280;46106;51.468;5.814;2023-04-04T06:39:03;102646.47;;;3.67;100.00
60244;BME280;46106;51.468;5.814;2023-04-04T06:41:28;102641.84;;;4.13;100.00
60244;BME280;46106;51.468;5.814;2023-04-04T06:43:54;102654.41;;;4.17;100.00
60244;BME280;46106;51.468;5.814;2023-04-04T06:46:20;102658.69;;;4.26;100.00
60244;BME280;46106;51.468;5.814;2023-04-04T06:48:45;102651.81;;;4.50;100.00
60244;BME280;46106;51.468;5.814;2023-04-04T06:51:11;102657.97;;;4.93;100.00
60244;BME280;46106;51.468;5.814;2023-04-04T06:53:37;102653.66;;;4.84;100.00
60244;BME280;46106;51.468;5.814;2023-04-04T06:56:03;102654.44;;;4.89;100.00
60244;BME280;46106;51.468;5.814;2023-04-04T06:58:29;102656.13;;;4.93;100.00
60244;BME280;46106;51.468;5.814;2023-04-04T07:00:55;102660.50;;;5.33;100.00
60244;BME280;46106;51.468;5.814;2023-04-04T07:03:21;102649.75;;;5.60;100.00
60244;BME280;46106;51.468;5.814;2023-04-04T07:05:48;102658.72;;;5.95;100.00
60244;BME280;46106;51.468;5.814;2023-04-04T07:08:13;102652.31;;;5.35;100.00
60244;BME280;46106;51.468;5.814;2023-04-04T07:10:39;102653.72;;;5.48;100.00
60244;BME280;46106;51.468;5.814;2023-04-04T07:13:05;102644.75;;;5.46;100.00
60244;BME280;46106;51.468;5.814;2023-04-04T07:15:30;102636.13;;;5.92;100.00
60244;BME280;46106;51.468;5.814;2023-04-04T07:17:56;102650.19;;;6.07;90.66
60244;BME280;46106;51.468;5.814;2023-04-04T07:20:21;102651.38;;;6.27;94.94
60244;BME280;46106;51.468;5.814;2023-04-04T07:22:47;102643.88;;;6.07;98.54
60244;BME280;46106;51.468;5.814;2023-04-04T07:25:13;102630.81;;;6.47;97.39
60244;BME280;46106;51.468;5.814;2023-04-04T07:27:38;102645.47;;;6.96;87.75
60244;BME280;46106;51.468;5.814;2023-04-04T07:30:06;102637.56;;;6.88;85.08
60244;BME280;46106;51.468;5.814;2023-04-04T07:32:35;102641.66;;;6.48;83.82
60244;BME280;46106;51.468;5.814;2023-04-04T07:35:03;102641.91;;;6.67;82.46
60244;BME280;46106;51.468;5.814;2023-04-04T07:37:29;102652.44;;;6.78;82.61
60244;BME280;46106;51.468;5.814;2023-04-04T07:39:54;102651.81;;;7.22;80.87
60244;BME280;46106;51.468;5.814;2023-04-04T07:42:21;102650.69;;;7.27;77.86
60244;BME280;46106;51.468;5.814;2023-04-04T07:44:50;102645.56;;;6.93;79.96
60244;BME280;46106;51.468;5.814;2023-04-04T07:47:16;102641.53;;;7.30;76.78
60244;BME280;46106;51.468;5.814;2023-04-04T07:49:42;102643.28;;;8.03;72.99
60244;BME280;46106;51.468;5.814;2023-04-04T07:52:07;102642.16;;;8.31;67.23
60244;BME280;46106;51.468;5.814;2023-04-04T07:54:33;102643.91;;;8.78;63.77
60244;BME280;46106;51.468;5.814;2023-04-04T07:56:59;102641.84;;;9.46;59.39
60244;BME280;46106;51.468;5.814;2023-04-04T07:59:24;102634.69;;;8.80;60.17
60244;BME280;46106;51.468;5.814;2023-04-04T08:01:50;102639.38;;;9.19;60.90
60244;BME280;46106;51.468;5.814;2023-04-04T08:04:16;102632.00;;;9.01;62.35
60244;BME280;46106;51.468;5.814;2023-04-04T08:06:41;102639.22;;;10.02;58.54
60244;BME280;46106;51.468;5.814;2023-04-04T08:09:06;102640.47;;;9.94;57.80
60244;BME280;46106;51.468;5.814;2023-04-04T08:11:32;102634.97;;;9.36;57.78
60244;BME280;46106;51.468;5.814;2023-04-04T08:13:57;102650.09;;;9.45;58.02
60244;BME280;46106;51.468;5.814;2023-04-04T08:16:23;102658.06;;;9.70;55.83
60244;BME280;46106;51.468;5.814;2023-04-04T08:18:48;102656.03;;;9.94;54.69
60244;BME280;46106;51.468;5.814;2023-04-04T08:21:14;102647.81;;;10.13;52.72
60244;BME280;46106;51.468;5.814;2023-04-04T08:23:40;102645.16;;;10.50;50.63
60244;BME280;46106;51.468;5.814;2023-04-04T08:26:05;102647.31;;;11.14;47.32
60244;BME280;46106;51.468;5.814;2023-04-04T08:28:30;102651.28;;;9.98;47.99
60244;BME280;46106;51.468;5.814;2023-04-04T08:30:56;102649.09;;;10.25;47.83
60244;BME280;46106;51.468;5.814;2023-04-04T08:33:23;102647.31;;;10.79;47.17
60244;BME280;46106;51.468;5.814;2023-04-04T08:35:49;102647.28;;;10.24;45.33
60244;BME280;46106;51.468;5.814;2023-04-04T08:38:14;102642.31;;;11.22;44.97
60244;BME280;46106;51.468;5.814;2023-04-04T08:40:40;102641.34;;;11.06;44.49
60244;BME280;46106;51.468;5.814;2023-04-04T08:43:06;102634.16;;;11.56;42.94
60244;BME280;46106;51.468;5.814;2023-04-04T08:45:33;102628.75;;;11.37;42.67
60244;BME280;46106;51.468;5.814;2023-04-04T08:48:00;102637.28;;;11.48;42.50
60244;BME280;46106;51.468;5.814;2023-04-04T08:50:28;102636.25;;;11.84;42.88
60244;BME280;46106;51.468;5.814;2023-04-04T08:52:55;102631.34;;;12.39;41.56
60244;BME280;46106;51.468;5.814;2023-04-04T08:55:20;102630.00;;;11.65;43.96
60244;BME280;46106;51.468;5.814;2023-04-04T08:57:46;102629.88;;;11.33;41.27
60244;BME280;46106;51.468;5.814;2023-04-04T09:00:14;102631.03;;;10.76;41.19
60244;BME280;46106;51.468;5.814;2023-04-04T09:03:11;102643.72;;;12.62;40.26
60244;BME280;46106;51.468;5.814;2023-04-04T09:05:38;102635.47;;;11.65;41.15
60244;BME280;46106;51.468;5.814;2023-04-04T09:08:04;102624.53;;;12.14;40.65
60244;BME280;46106;51.468;5.814;2023-04-04T09:10:33;102633.22;;;11.55;42.29
60244;BME280;46106;51.468;5.814;2023-04-04T09:13:01;102637.53;;;11.26;41.84
60244;BME280;46106;51.468;5.814;2023-04-04T09:15:27;102629.44;;;11.58;41.69
60244;BME280;46106;51.468;5.814;2023-04-04T09:17:53;102635.56;;;11.12;42.49
60244;BME280;46106;51.468;5.814;2023-04-04T09:20:35;102633.44;;;12.02;42.36
60244;BME280;46106;51.468;5.814;2023-04-04T09:23:03;102636.44;;;11.64;41.79
60244;BME280;46106;51.468;5.814;2023-04-04T09:25:29;102630.75;;;10.63;40.96
60244;BME280;46106;51.468;5.814;2023-04-04T09:27:54;102629.34;;;11.09;42.10
60244;BME280;46106;51.468;5.814;2023-04-04T09:30:22;102627.88;;;11.36;44.83
60244;BME280;46106;51.468;5.814;2023-04-04T09:32:48;102621.72;;;11.31;40.27
60244;BME280;46106;51.468;5.814;2023-04-04T09:35:13;102603.69;;;11.61;40.67
60244;BME280;46106;51.468;5.814;2023-04-04T09:37:40;102630.53;;;11.03;40.89
60244;BME280;46106;51.468;5.814;2023-04-04T09:40:09;102634.78;;;11.44;41.23
60244;BME280;46106;51.468;5.814;2023-04-04T09:42:35;102624.69;;;11.62;41.08
60244;BME280;46106;51.468;5.814;2023-04-04T09:45:01;102616.44;;;12.59;41.20
60244;BME280;46106;51.468;5.814;2023-04-04T09:47:29;102625.44;;;11.81;41.71
60244;BME280;46106;51.468;5.814;2023-04-04T09:49:59;102621.06;;;11.10;42.69
60244;BME280;46106;51.468;5.814;2023-04-04T09:52:25;102618.75;;;11.36;40.79
60244;BME280;46106;51.468;5.814;2023-04-04T09:54:54;102618.94;;;11.82;42.39
60244;BME280;46106;51.468;5.814;2023-04-04T09:57:21;102618.22;;;10.94;41.19
60244;BME280;46106;51.468;5.814;2023-04-04T09:59:46;102614.41;;;11.32;41.45
60244;BME280;46106;51.468;5.814;2023-04-04T10:02:12;102612.94;;;11.42;41.78
60244;BME280;46106;51.468;5.814;2023-04-04T10:04:38;102609.91;;;11.64;42.01
60244;BME280;46106;51.468;5.814;2023-04-04T10:07:03;102599.41;;;11.88;41.83
60244;BME280;46106;51.468;5.814;2023-04-04T10:09:29;102607.41;;;11.93;41.73
60244;BME280;46106;51.468;5.814;2023-04-04T10:12:14;102601.22;;;11.72;40.85
60244;BME280;46106;51.468;5.814;2023-04-04T10:14:41;102618.31;;;12.42;38.40
60244;BME280;46106;51.468;5.814;2023-04-04T10:17:08;102607.16;;;12.29;40.67
60244;BME280;46106;51.468;5.814;2023-04-04T10:19:38;102606.06;;;11.84;41.78
60244;BME280;46106;51.468;5.814;2023-04-04T10:22:07;102601.88;;;11.44;41.50
60244;BME280;46106;51.468;5.814;2023-04-04T10:24:34;102607.59;;;11.06;39.56
60244;BME280;46106;51.468;5.814;2023-04-04T10:26:59;102592.53;;;12.13;40.52
60244;BME280;46106;51.468;5.814;2023-04-04T10:29:25;102596.66;;;12.52;37.43
60244;BME280;46106;51.468;5.814;2023-04-04T10:32:04;102595.03;;;12.34;39.26
60244;BME280;46106;51.468;5.814;2023-04-04T10:34:43;102600.50;;;12.18;39.26
60244;BME280;46106;51.468;5.814;2023-04-04T10:37:14;102594.16;;;12.17;39.07
60244;BME280;46106;51.468;5.814;2023-04-04T10:42:08;102597.94;;;12.30;40.47
60244;BME280;46106;51.468;5.814;2023-04-04T10:44:38;102591.94;;;12.70;38.83
60244;BME280;46106;51.468;5.814;2023-04-04T10:47:17;102599.03;;;11.78;38.09
60244;BME280;46106;51.468;5.814;2023-04-04T10:49:44;102586.25;;;11.95;38.21
60244;BME280;46106;51.468;5.814;2023-04-04T10:52:21;102583.69;;;12.08;38.69
60244;BME280;46106;51.468;5.814;2023-04-04T10:54:53;102573.66;;;11.57;40.32
60244;BME280;46106;51.468;5.814;2023-04-04T10:57:21;102568.53;;;12.17;40.77
60244;BME280;46106;51.468;5.814;2023-04-04T11:00:03;102570.72;;;12.72;39.24
60244;BME280;46106;51.468;5.814;2023-04-04T11:07:51;102562.91;;;11.54;39.12
60244;BME280;46106;51.468;5.814;2023-04-04T11:10:22;102561.19;;;12.01;38.24
60244;BME280;46106;51.468;5.814;2023-04-04T11:12:52;102553.38;;;12.41;39.15
60244;BME280;46106;51.468;5.814;2023-04-04T11:15:25;102560.00;;;11.89;40.75
60244;BME280;46106;51.468;5.814;2023-04-04T11:17:54;102564.56;;;11.57;39.02
60244;BME280;46106;51.468;5.814;2023-04-04T11:20:32;102550.91;;;12.21;39.24
60244;BME280;46106;51.468;5.814;2023-04-04T11:23:15;102550.25;;;11.34;37.82
60244;BME280;46106;51.468;5.814;2023-04-04T11:31:33;102540.31;;;11.16;39.72
60244;BME280;46106;51.468;5.814;2023-04-04T11:34:05;102536.91;;;10.77;40.74
60244;BME280;46106;51.468;5.814;2023-04-04T11:39:24;102535.28;;;10.91;39.75
60244;BME280;46106;51.468;5.814;2023-04-04T11:44:17;102537.28;;;11.38;39.67
60244;BME280;46106;51.468;5.814;2023-04-04T11:46:43;102528.72;;;11.11;39.15
60244;BME280;46106;51.468;5.814;2023-04-04T11:49:10;102529.28;;;11.17;41.75
60244;BME280;46106;51.468;5.814;2023-04-04T11:51:37;102521.34;;;11.29;43.00
60244;BME280;46106;51.468;5.814;2023-04-04T11:54:03;102526.50;;;10.49;41.77
60244;BME280;46106;51.468;5.814;2023-04-04T11:56:35;102524.25;;;10.75;41.63
60244;BME280;46106;51.468;5.814;2023-04-04T11:59:02;102515.94;;;10.76;40.18
60244;BME280;46106;51.468;5.814;2023-04-04T12:01:28;102510.78;;;10.88;42.37
60244;BME280;46106;51.468;5.814;2023-04-04T12:03:54;102507.56;;;10.44;42.11
60244;BME280;46106;51.468;5.814;2023-04-04T12:06:20;102509.66;;;10.74;41.25
60244;BME280;46106;51.468;5.814;2023-04-04T12:08:46;102497.25;;;10.67;42.23
60244;BME280;46106;51.468;5.814;2023-04-04T12:11:14;102504.16;;;10.92;40.86
60244;BME280;46106;51.468;5.814;2023-04-04T12:13:43;102510.63;;;10.73;41.99
60244;BME280;46106;51.468;5.814;2023-04-04T12:16:09;102496.78;;;10.76;40.41
60244;BME280;46106;51.468;5.814;2023-04-04T12:18:35;102477.44;;;10.44;41.74
60244;BME280;46106;51.468;5.814;2023-04-04T12:21:02;102501.00;;;10.99;43.64
60244;BME280;46106;51.468;5.814;2023-04-04T12:23:33;102503.56;;;11.20;40.71
60244;BME280;46106;51.468;5.814;2023-04-04T12:25:58;102498.03;;;10.87;39.99
60244;BME280;46106;51.468;5.814;2023-04-04T12:28:28;102495.44;;;11.01;41.44
60244;BME280;46106;51.468;5.814;2023-04-04T12:30:55;102480.94;;;10.99;40.88
60244;BME280;46106;51.468;5.814;2023-04-04T12:33:20;102497.22;;;11.02;40.79
60244;BME280;46106;51.468;5.814;2023-04-04T12:35:53;102482.63;;;11.01;40.25
60244;BME280;46106;51.468;5.814;2023-04-04T12:38:19;102477.97;;;10.86;40.25
60244;BME280;46106;51.468;5.814;2023-04-04T12:40:45;102467.06;;;11.02;41.77
60244;BME280;46106;51.468;5.814;2023-04-04T12:43:16;102458.09;;;11.32;43.31
60244;BME280;46106;51.468;5.814;2023-04-04T12:45:43;102455.19;;;10.68;41.38
60244;BME280;46106;51.468;5.814;2023-04-04T12:48:13;102452.94;;;10.76;41.33
60244;BME280;46106;51.468;5.814;2023-04-04T12:50:52;102445.69;;;11.09;41.92
60244;BME280;46106;51.468;5.814;2023-04-04T12:53:19;102439.75;;;11.00;41.87
60244;BME280;46106;51.468;5.814;2023-04-04T12:55:47;102448.31;;;10.94;41.78
60244;BME280;46106;51.468;5.814;2023-04-04T12:58:21;102447.69;;;10.89;42.79
60244;BME280;46106;51.468;5.814;2023-04-04T13:00:51;102437.72;;;11.04;44.20
60244;BME280;46106;51.468;5.814;2023-04-04T13:03:20;102438.59;;;11.04;43.12
60244;BME280;46106;51.468;5.814;2023-04-04T13:05:47;102444.09;;;10.54;41.63
60244;BME280;46106;51.468;5.814;2023-04-04T13:08:13;102437.63;;;10.72;42.17